createdAt,value
2023-03-21T00:01:56.672Z,8.59
2023-03-21T00:04:25.484Z,8.54
2023-03-21T00:06:52.641Z,8.40
2023-03-21T00:09:19.929Z,8.34
2023-03-21T00:11:46.786Z,8.32
2023-03-21T00:14:15.959Z,8.22
2023-03-21T00:16:45.943Z,8.18
2023-03-21T00:39:11.885Z,7.46
2023-03-21T00:41:42.907Z,7.43
2023-03-21T00:44:13.810Z,7.36
2023-03-21T00:46:47.308Z,7.34
2023-03-21T00:49:21.534Z,7.31
2023-03-21T00:51:51.196Z,7.28
2023-03-21T00:54:18.231Z,7.26
2023-03-21T00:56:45.102Z,7.24
2023-03-21T00:59:11.833Z,7.23
2023-03-21T01:01:38.689Z,7.20
2023-03-21T01:04:07.617Z,7.17
2023-03-21T01:06:40.310Z,7.12
2023-03-21T01:09:11.190Z,7.08
2023-03-21T01:11:37.980Z,7.02
2023-03-21T01:14:20.972Z,7.00
2023-03-21T01:16:49.855Z,6.97
2023-03-21T01:19:25.550Z,6.96
2023-03-21T01:21:56.701Z,6.95
2023-03-21T01:24:23.508Z,6.93
2023-03-21T01:26:50.181Z,6.83
2023-03-21T01:29:16.966Z,6.76
2023-03-21T01:31:43.673Z,6.71
2023-03-21T01:34:10.425Z,6.69
2023-03-21T01:36:37.218Z,6.62
2023-03-21T01:39:06.155Z,6.61
2023-03-21T01:41:42.977Z,6.56
2023-03-21T01:44:15.570Z,6.55
2023-03-21T01:47:11.620Z,6.53
2023-03-21T01:49:39.074Z,6.51
2023-03-21T01:52:13.073Z,6.51
2023-03-21T01:54:41.631Z,6.47
2023-03-21T01:57:12.524Z,6.50
2023-03-21T01:59:50.711Z,6.53
2023-03-21T02:02:29.011Z,6.61
2023-03-21T02:04:58.125Z,6.69
2023-03-21T02:07:29.212Z,6.78
2023-03-21T02:09:56.186Z,6.83
2023-03-21T02:12:23.253Z,6.89
2023-03-21T02:14:50.329Z,6.91
2023-03-21T02:17:38.782Z,6.94
2023-03-21T02:20:27.052Z,6.95
2023-03-21T02:23:18.266Z,6.99
2023-03-21T02:25:56.811Z,7.04
2023-03-21T02:28:31.732Z,7.09
2023-03-21T02:31:12.149Z,7.10
2023-03-21T02:33:57.670Z,7.07
2023-03-21T02:36:28.740Z,7.11
2023-03-21T02:38:56.770Z,7.16
2023-03-21T02:41:47.971Z,7.19
2023-03-21T02:44:25.332Z,7.26
2023-03-21T02:47:10.868Z,7.33
2023-03-21T02:49:45.356Z,7.41
2023-03-21T02:52:28.297Z,7.48
2023-03-21T02:55:00.009Z,7.52
2023-03-21T02:57:33.802Z,7.67
2023-03-21T03:00:16.631Z,7.81
2023-03-21T03:02:44.243Z,7.86
2023-03-21T03:05:21.543Z,7.85
2023-03-21T03:08:18.729Z,7.85
2023-03-21T03:10:54.515Z,7.88
2023-03-21T03:13:43.020Z,7.88
2023-03-21T03:16:13.539Z,7.87
2023-03-21T03:18:53.180Z,7.90
2023-03-21T03:21:39.964Z,7.88
2023-03-21T03:24:29.874Z,7.94
2023-03-21T03:27:05.275Z,7.91
2023-03-21T03:29:34.140Z,8.01
2023-03-21T03:32:05.485Z,8.06
2023-03-21T03:34:40.728Z,8.06
2023-03-21T03:37:10.763Z,8.05
2023-03-21T03:39:46.456Z,8.09
2023-03-21T03:42:28.389Z,8.07
2023-03-21T03:44:55.972Z,8.05
2023-03-21T03:47:50.794Z,8.05
2023-03-21T03:50:36.571Z,8.00
2023-03-21T03:53:18.965Z,8.01
2023-03-21T03:55:46.681Z,7.99
2023-03-21T03:58:22.868Z,8.03
2023-03-21T04:00:52.570Z,8.04
2023-03-21T04:03:19.509Z,8.07
2023-03-21T04:05:46.693Z,8.12
2023-03-21T04:08:14.353Z,8.13
2023-03-21T04:10:42.458Z,8.12
2023-03-21T04:13:09.258Z,8.08
2023-03-21T04:15:36.206Z,8.13
2023-03-21T04:18:03.413Z,8.12
2023-03-21T04:20:43.381Z,8.12
2023-03-21T04:23:11.252Z,8.13
2023-03-21T04:25:44.633Z,8.10
2023-03-21T04:28:17.527Z,8.10
2023-03-21T04:30:58.940Z,8.09
2023-03-21T04:33:27.922Z,8.11
2023-03-21T04:35:56.338Z,8.07
2023-03-21T04:38:23.768Z,8.09
2023-03-21T04:40:50.602Z,8.10
2023-03-21T04:43:17.322Z,8.07
2023-03-21T04:45:44.454Z,8.10
2023-03-21T04:48:11.221Z,8.09
2023-03-21T04:50:38.258Z,8.11
2023-03-21T04:53:05.306Z,8.13
2023-03-21T04:55:32.475Z,8.12
2023-03-21T04:57:59.704Z,8.12
2023-03-21T05:00:27.170Z,8.16
2023-03-21T05:02:53.854Z,8.20
2023-03-21T05:05:20.642Z,8.24
2023-03-21T05:07:47.431Z,8.32
2023-03-21T05:10:14.274Z,8.38
2023-03-21T05:12:41.396Z,8.46
2023-03-21T05:15:08.909Z,8.53
2023-03-21T05:17:35.658Z,8.60
2023-03-21T05:20:02.476Z,8.65
2023-03-21T05:22:29.325Z,8.74
2023-03-21T05:24:56.083Z,8.81
2023-03-21T05:27:35.576Z,8.89
2023-03-21T05:30:08.630Z,8.93
2023-03-21T05:32:35.354Z,9.03
2023-03-21T05:35:02.290Z,9.06
2023-03-21T05:37:29.179Z,9.17
2023-03-21T05:39:55.982Z,9.32
2023-03-21T05:42:22.875Z,9.34
2023-03-21T05:44:49.622Z,9.47
2023-03-21T05:47:19.159Z,9.57
2023-03-21T05:49:46.054Z,9.71
2023-03-21T05:52:12.932Z,9.82
2023-03-21T05:54:39.718Z,9.97
2023-03-21T05:57:06.675Z,10.12
2023-03-21T05:59:33.721Z,10.24
2023-03-21T06:02:00.766Z,10.38
2023-03-21T06:04:27.826Z,10.47
2023-03-21T06:06:54.863Z,10.58
2023-03-21T06:09:22.606Z,10.69
2023-03-21T06:11:51.350Z,10.80
2023-03-21T06:14:18.587Z,10.91
2023-03-21T06:16:45.394Z,11.00
2023-03-21T06:19:12.388Z,11.15
2023-03-21T06:21:39.192Z,11.18
2023-03-21T06:24:06.304Z,11.37
2023-03-21T06:26:32.991Z,11.58
2023-03-21T06:28:59.701Z,11.85
2023-03-21T06:31:26.760Z,12.09
2023-03-21T06:33:53.598Z,12.28
2023-03-21T06:36:20.609Z,12.50
2023-03-21T06:38:48.640Z,12.78
2023-03-21T06:41:16.879Z,12.98
2023-03-21T06:43:44.203Z,13.38
2023-03-21T06:46:11.415Z,13.96
2023-03-21T06:48:44.286Z,14.32
2023-03-21T06:51:12.785Z,14.60
2023-03-21T06:53:41.446Z,14.82
2023-03-21T06:56:11.866Z,15.07
2023-03-21T06:58:38.708Z,15.00
2023-03-21T07:01:05.988Z,14.86
2023-03-21T07:03:34.126Z,14.75
2023-03-21T07:06:07.086Z,14.77
2023-03-21T07:08:33.995Z,14.81
2023-03-21T07:11:01.966Z,14.76
2023-03-21T07:13:28.687Z,14.71
2023-03-21T07:15:55.644Z,14.89
2023-03-21T07:18:22.451Z,15.08
2023-03-21T07:20:51.111Z,15.14
2023-03-21T07:23:19.478Z,15.21
2023-03-21T07:25:48.431Z,15.40
2023-03-21T07:28:16.304Z,15.34
2023-03-21T07:30:44.129Z,15.64
2023-03-21T07:33:11.522Z,15.47
2023-03-21T07:35:38.768Z,15.74
2023-03-21T07:38:05.925Z,16.21
2023-03-21T07:40:32.808Z,16.58
2023-03-21T07:42:59.581Z,17.23
2023-03-21T07:45:27.393Z,17.89
2023-03-21T07:47:54.526Z,18.58
2023-03-21T07:50:21.629Z,19.05
2023-03-21T07:52:48.702Z,19.68
2023-03-21T07:55:17.306Z,20.02
2023-03-21T07:57:44.133Z,20.44
2023-03-21T08:00:12.709Z,20.64
2023-03-21T08:02:40.195Z,21.02
2023-03-21T08:05:07.247Z,21.09
2023-03-21T08:07:33.999Z,21.37
2023-03-21T08:10:01.297Z,21.53
2023-03-21T08:12:29.017Z,21.67
2023-03-21T08:14:55.933Z,21.89
2023-03-21T08:17:22.707Z,22.07
2023-03-21T08:19:49.506Z,22.24
2023-03-21T08:22:16.331Z,22.24
2023-03-21T08:24:43.154Z,22.60
2023-03-21T08:27:09.902Z,22.72
2023-03-21T08:29:40.516Z,23.07
2023-03-21T08:32:07.331Z,22.74
2023-03-21T08:34:34.017Z,22.70
2023-03-21T08:37:01.362Z,22.73
2023-03-21T08:39:28.505Z,22.42
2023-03-21T08:41:55.370Z,22.35
2023-03-21T08:44:22.183Z,22.29
2023-03-21T08:46:48.943Z,22.16
2023-03-21T08:49:15.658Z,22.63
2023-03-21T08:51:45.778Z,22.84
2023-03-21T08:54:22.632Z,23.19
2023-03-21T08:56:49.512Z,23.52
2023-03-21T08:59:17.562Z,23.30
2023-03-21T09:01:45.134Z,23.05
2023-03-21T09:04:18.920Z,22.85
2023-03-21T09:06:51.094Z,23.24
2023-03-21T09:09:19.842Z,23.74
2023-03-21T09:11:47.355Z,24.04
2023-03-21T09:14:14.140Z,24.34
2023-03-21T09:16:41.268Z,24.65
2023-03-21T09:19:08.708Z,24.60
2023-03-21T09:21:36.773Z,24.43
2023-03-21T09:24:06.583Z,24.30
2023-03-21T09:26:33.692Z,24.35
2023-03-21T09:29:01.061Z,24.55
2023-03-21T09:31:28.663Z,24.83
2023-03-21T09:33:58.019Z,25.23
2023-03-21T09:36:27.228Z,25.20
2023-03-21T09:38:54.785Z,24.91
2023-03-21T09:41:54.135Z,23.83
2023-03-21T09:45:01.746Z,22.31
2023-03-21T09:47:34.761Z,22.61
2023-03-21T09:50:14.433Z,22.87
2023-03-21T09:52:50.689Z,22.59
2023-03-21T09:55:23.906Z,22.71
2023-03-21T09:58:16.249Z,23.60
2023-03-21T10:00:46.505Z,24.38
2023-03-21T10:03:26.283Z,25.07
2023-03-21T10:05:58.877Z,25.24
2023-03-21T10:08:30.789Z,25.75
2023-03-21T10:11:01.736Z,25.87
2023-03-21T10:13:36.030Z,25.75
2023-03-21T10:16:30.620Z,25.00
2023-03-21T10:18:59.643Z,24.30
2023-03-21T10:21:51.734Z,23.61
2023-03-21T10:24:20.695Z,24.32
2023-03-21T10:26:48.461Z,25.14
2023-03-21T10:29:16.787Z,24.95
2023-03-21T10:31:45.248Z,24.00
2023-03-21T10:34:36.039Z,23.05
2023-03-21T10:37:04.453Z,21.97
2023-03-21T10:39:39.292Z,21.53
2023-03-21T10:42:06.750Z,22.01
2023-03-21T10:44:35.146Z,23.28
2023-03-21T10:47:06.416Z,24.42
2023-03-21T10:49:40.754Z,25.33
2023-03-21T10:52:22.495Z,25.87
2023-03-21T10:54:49.669Z,26.65
2023-03-21T10:57:22.543Z,27.13
2023-03-21T10:59:57.997Z,27.81
2023-03-21T11:02:30.396Z,27.51
2023-03-21T11:04:58.380Z,27.46
2023-03-21T11:07:30.977Z,28.25
2023-03-21T11:09:59.942Z,28.98
2023-03-21T11:12:38.560Z,29.13
2023-03-21T11:15:40.187Z,29.48
2023-03-21T11:18:22.036Z,29.95
2023-03-21T11:20:51.904Z,30.15
2023-03-21T11:23:20.718Z,30.34
2023-03-21T11:25:50.131Z,30.55
2023-03-21T11:28:22.980Z,30.70
2023-03-21T11:30:59.116Z,30.60
2023-03-21T11:33:28.822Z,30.89
2023-03-21T11:36:04.080Z,31.70
2023-03-21T11:38:38.208Z,31.73
2023-03-21T11:41:06.896Z,31.25
2023-03-21T11:43:39.710Z,30.78
2023-03-21T11:46:13.785Z,30.55
2023-03-21T11:48:45.721Z,29.42
2023-03-21T11:51:38.249Z,29.53
2023-03-21T11:54:20.280Z,30.60
2023-03-21T11:56:49.472Z,30.94
2023-03-21T11:59:16.623Z,31.12
2023-03-21T12:01:43.837Z,30.47
2023-03-21T12:05:11.211Z,28.68
2023-03-21T12:07:58.179Z,26.96
2023-03-21T12:10:37.650Z,27.88
2023-03-21T12:13:19.799Z,30.07
2023-03-21T12:16:09.264Z,31.83
2023-03-21T12:18:49.914Z,33.35
2023-03-21T12:21:31.714Z,31.99
2023-03-21T12:24:01.201Z,30.81
2023-03-21T12:26:38.868Z,30.95
2023-03-21T12:29:09.855Z,29.44
2023-03-21T12:31:44.295Z,27.90
2023-03-21T12:34:15.246Z,26.77
2023-03-21T12:36:51.433Z,25.65
2023-03-21T12:39:18.361Z,24.58
2023-03-21T12:41:54.660Z,23.61
2023-03-21T12:44:22.790Z,23.06
2023-03-21T12:47:09.462Z,22.62
2023-03-21T12:49:38.886Z,22.07
2023-03-21T12:52:13.226Z,22.06
2023-03-21T12:54:55.625Z,22.11
2023-03-21T12:57:56.437Z,22.15
2023-03-21T13:00:27.776Z,25.30
2023-03-21T13:02:59.018Z,27.19
2023-03-21T13:05:28.858Z,27.24
2023-03-21T13:08:03.750Z,25.82
2023-03-21T13:10:30.696Z,24.82
2023-03-21T13:13:34.223Z,24.79
2023-03-21T13:16:03.587Z,26.43
2023-03-21T13:18:56.594Z,26.85
2023-03-21T13:21:43.917Z,27.14
2023-03-21T13:24:33.110Z,27.08
2023-03-21T13:27:20.071Z,26.49
2023-03-21T13:30:19.126Z,28.03
2023-03-21T13:32:49.307Z,27.81
2023-03-21T13:35:18.961Z,26.34
2023-03-21T13:38:01.873Z,28.66
2023-03-21T13:40:48.861Z,31.23
2023-03-21T13:43:40.204Z,33.17
2023-03-21T13:46:15.968Z,34.12
2023-03-21T13:49:01.870Z,34.46
2023-03-21T13:51:38.575Z,35.27
2023-03-21T13:54:08.679Z,34.95
2023-03-21T13:56:47.497Z,35.63
2023-03-21T13:59:18.807Z,35.53
2023-03-21T14:01:58.810Z,36.29
2023-03-21T14:04:41.923Z,36.32
2023-03-21T14:07:26.480Z,36.38
2023-03-21T14:09:55.839Z,37.12
2023-03-21T14:12:24.559Z,37.31
2023-03-21T14:14:55.204Z,37.53
2023-03-21T14:17:26.044Z,37.78
2023-03-21T14:20:14.463Z,37.16
2023-03-21T14:22:41.715Z,37.40
2023-03-21T14:25:13.500Z,37.70
2023-03-21T14:27:43.680Z,37.96
2023-03-21T14:30:22.011Z,37.98
2023-03-21T14:32:48.838Z,37.24
2023-03-21T14:35:15.611Z,33.62
2023-03-21T14:37:44.733Z,33.23
2023-03-21T14:40:26.580Z,33.92
2023-03-21T14:42:54.419Z,34.91
2023-03-21T14:45:28.731Z,35.74
2023-03-21T14:48:07.663Z,35.69
2023-03-21T14:50:48.291Z,35.50
2023-03-21T14:53:25.390Z,35.70
2023-03-21T14:56:04.326Z,34.62
2023-03-21T14:58:38.416Z,34.97
2023-03-21T15:01:14.655Z,34.20
2023-03-21T15:03:44.675Z,34.02
2023-03-21T15:06:13.588Z,33.51
2023-03-21T15:08:40.855Z,33.89
2023-03-21T15:11:11.618Z,33.61
2023-03-21T15:13:46.190Z,33.43
2023-03-21T15:16:14.967Z,33.67
2023-03-21T15:18:43.016Z,34.06
2023-03-21T15:21:13.383Z,33.91
2023-03-21T15:23:45.242Z,32.28
2023-03-21T15:26:16.930Z,32.24
2023-03-21T15:28:46.619Z,31.31
2023-03-21T15:31:21.658Z,31.13
2023-03-21T15:33:49.248Z,31.42
2023-03-21T15:36:22.378Z,31.33
2023-03-21T15:38:49.896Z,30.77
2023-03-21T15:41:19.668Z,30.17
2023-03-21T15:43:55.031Z,28.03
2023-03-21T15:46:34.148Z,25.95
2023-03-21T15:49:31.179Z,23.95
2023-03-21T15:52:09.943Z,22.79
2023-03-21T15:54:50.229Z,21.78
2023-03-21T15:57:22.636Z,21.22
2023-03-21T15:59:49.623Z,20.57
2023-03-21T16:02:19.315Z,20.12
2023-03-21T16:05:18.059Z,19.75
2023-03-21T16:07:46.169Z,19.38
2023-03-21T16:10:39.143Z,18.97
2023-03-21T16:13:06.684Z,18.72
2023-03-21T16:15:33.461Z,18.44
2023-03-21T16:18:01.839Z,18.08
2023-03-21T16:20:50.503Z,17.76
2023-03-21T16:23:17.385Z,17.41
2023-03-21T16:25:44.399Z,17.13
2023-03-21T16:28:17.541Z,16.92
2023-03-21T16:30:44.966Z,16.76
2023-03-21T16:33:12.515Z,16.53
2023-03-21T16:35:39.826Z,16.30
2023-03-21T16:38:06.606Z,16.04
2023-03-21T16:40:39.572Z,15.88
2023-03-21T16:43:07.337Z,15.71
2023-03-21T16:45:34.196Z,15.48
2023-03-21T16:48:02.110Z,15.36
2023-03-21T16:50:29.550Z,15.24
2023-03-21T16:52:57.088Z,15.10
2023-03-21T16:55:24.701Z,14.93
2023-03-21T16:57:52.488Z,14.83
2023-03-21T17:00:26.076Z,14.69
2023-03-21T17:02:54.922Z,14.55
2023-03-21T17:05:26.218Z,14.41
2023-03-21T17:07:54.508Z,14.30
2023-03-21T17:10:24.039Z,14.14
2023-03-21T17:12:50.816Z,14.02
2023-03-21T17:15:18.057Z,13.91
2023-03-21T17:17:45.771Z,13.76
2023-03-21T17:20:28.176Z,13.61
2023-03-21T17:22:54.960Z,13.46
2023-03-21T17:25:21.885Z,13.32
2023-03-21T17:27:49.271Z,13.17
2023-03-21T17:30:31.644Z,12.99
2023-03-21T17:32:58.903Z,12.83
2023-03-21T17:35:26.650Z,12.68
2023-03-21T17:37:54.126Z,12.57
2023-03-21T17:40:23.752Z,12.48
2023-03-21T17:42:51.647Z,12.37
2023-03-21T17:45:18.689Z,12.26
2023-03-21T17:47:45.841Z,12.14
2023-03-21T17:50:19.096Z,12.04
2023-03-21T17:52:46.925Z,11.96
2023-03-21T17:55:17.834Z,11.87
2023-03-21T17:57:44.751Z,11.76
2023-03-21T18:00:16.773Z,11.70
2023-03-21T18:02:43.576Z,11.63
2023-03-21T18:05:10.762Z,11.57
2023-03-21T18:08:08.140Z,11.47
2023-03-21T18:10:26.552Z,11.38
2023-03-21T18:12:56.040Z,11.30
2023-03-21T18:15:24.573Z,11.20
2023-03-21T18:17:51.515Z,11.15
2023-03-21T18:20:21.102Z,11.15
2023-03-21T18:22:48.085Z,11.10
2023-03-21T18:25:15.937Z,11.09
2023-03-21T18:28:06.891Z,11.06
2023-03-21T18:31:00.388Z,11.07
2023-03-21T18:33:16.544Z,11.05
2023-03-21T18:35:43.562Z,11.01
2023-03-21T18:38:10.524Z,11.04
2023-03-21T18:40:37.566Z,11.01
2023-03-21T18:45:52.012Z,10.97
2023-03-21T18:48:18.784Z,11.04
2023-03-21T18:50:46.035Z,11.03
2023-03-21T18:53:12.693Z,10.98
2023-03-21T18:55:45.946Z,11.01
2023-03-21T18:58:13.505Z,11.02
2023-03-21T19:00:40.897Z,11.02
2023-03-21T19:03:19.289Z,11.06
2023-03-21T19:05:58.579Z,11.07
2023-03-21T19:08:25.799Z,11.09
2023-03-21T19:10:53.097Z,11.09
2023-03-21T19:13:19.880Z,10.99
2023-03-21T19:15:49.463Z,11.04
2023-03-21T19:21:05.590Z,10.98
2023-03-21T19:23:56.360Z,11.01
2023-03-21T19:26:19.302Z,11.00
2023-03-21T19:28:46.081Z,10.97
2023-03-21T19:31:12.797Z,10.95
2023-03-21T19:33:39.637Z,10.94
2023-03-21T19:36:18.080Z,10.88
2023-03-21T19:38:48.521Z,10.81
2023-03-21T19:41:15.541Z,10.75
2023-03-21T19:43:53.214Z,10.67
2023-03-21T19:46:24.661Z,10.60
2023-03-21T19:48:51.716Z,10.56
2023-03-21T19:51:28.366Z,10.51
2023-03-21T19:53:56.427Z,10.46
2023-03-21T19:56:26.751Z,10.40
2023-03-21T19:58:57.033Z,10.36
2023-03-21T20:01:24.800Z,10.33
2023-03-21T20:03:52.414Z,10.31
2023-03-21T20:06:19.632Z,10.25
2023-03-21T20:09:34.059Z,10.22
2023-03-21T20:11:33.943Z,10.14
2023-03-21T20:14:03.061Z,10.08
2023-03-21T20:16:35.835Z,10.00
2023-03-21T20:19:08.729Z,9.91
2023-03-21T20:21:46.571Z,9.88
2023-03-21T20:24:16.450Z,9.90
2023-03-21T20:26:45.015Z,9.89
2023-03-21T20:30:03.802Z,9.88
2023-03-21T20:31:58.934Z,9.87
2023-03-21T20:34:25.858Z,9.84
2023-03-21T20:36:53.364Z,9.83
2023-03-21T20:39:20.170Z,9.77
2023-03-21T20:41:46.884Z,9.75
2023-03-21T20:44:44.779Z,9.72
2023-03-21T20:47:00.478Z,9.68
2023-03-21T20:49:28.416Z,9.64
2023-03-21T20:54:43.570Z,9.49
2023-03-21T20:57:10.762Z,9.56
2023-03-21T20:59:37.582Z,9.49
2023-03-21T21:02:05.301Z,9.43
2023-03-21T21:04:52.791Z,9.46
2023-03-21T21:07:21.368Z,9.43
2023-03-21T21:09:48.923Z,9.35
2023-03-21T21:12:19.181Z,9.28
2023-03-21T21:14:47.828Z,9.21
2023-03-21T21:17:31.161Z,9.19
2023-03-21T21:20:02.460Z,9.17
2023-03-21T21:22:29.398Z,9.09
2023-03-21T21:24:56.281Z,9.08
2023-03-21T21:27:23.050Z,9.01
2023-03-21T21:29:50.196Z,8.95
2023-03-21T21:32:18.688Z,8.87
2023-03-21T21:34:45.635Z,8.86
2023-03-21T21:37:12.460Z,8.82
2023-03-21T21:39:40.233Z,8.79
2023-03-21T21:42:07.037Z,8.74
2023-03-21T21:44:33.823Z,8.75
2023-03-21T21:47:04.145Z,8.68
2023-03-21T21:49:31.218Z,8.67
2023-03-21T21:51:59.822Z,8.74
2023-03-21T21:54:30.070Z,8.74
2023-03-21T21:56:57.997Z,8.67
2023-03-21T21:59:24.796Z,8.68
2023-03-21T22:01:51.883Z,8.70
2023-03-21T22:04:24.741Z,8.71
2023-03-21T22:06:51.950Z,8.71
2023-03-21T22:09:18.970Z,8.68
2023-03-21T22:11:45.889Z,8.64
2023-03-21T22:14:12.875Z,8.67
2023-03-21T22:16:39.727Z,8.68
2023-03-21T22:19:06.571Z,8.73
2023-03-21T22:21:33.322Z,8.75
2023-03-21T22:24:00.018Z,8.77
2023-03-21T22:26:26.846Z,8.81
2023-03-21T22:28:53.546Z,8.77
2023-03-21T22:31:20.682Z,8.85
2023-03-21T22:33:48.671Z,8.99
2023-03-21T22:36:15.419Z,9.07
2023-03-21T22:38:43.901Z,9.08
2023-03-21T22:41:10.921Z,9.09
2023-03-21T22:43:37.911Z,9.07
2023-03-21T22:46:05.454Z,9.09
2023-03-21T22:48:32.649Z,9.10
2023-03-21T22:50:59.818Z,9.04
2023-03-21T22:53:26.606Z,8.97
2023-03-21T22:55:53.324Z,8.86
2023-03-21T22:58:20.307Z,8.78
2023-03-21T23:00:47.459Z,8.65
2023-03-21T23:03:16.640Z,8.57
2023-03-21T23:05:44.209Z,8.54
2023-03-21T23:08:11.305Z,8.53
2023-03-21T23:10:39.631Z,8.38
2023-03-21T23:13:06.660Z,8.43
2023-03-21T23:15:33.390Z,8.42
2023-03-21T23:18:00.145Z,8.38
2023-03-21T23:20:26.994Z,8.32
2023-03-21T23:22:53.768Z,8.29
2023-03-21T23:25:20.651Z,8.19
2023-03-21T23:27:47.953Z,8.10
2023-03-21T23:30:15.048Z,8.02
2023-03-21T23:32:57.458Z,7.91
2023-03-21T23:35:24.430Z,7.87
2023-03-21T23:37:52.768Z,7.80
2023-03-21T23:40:20.820Z,7.73
2023-03-21T23:42:47.551Z,7.65
2023-03-21T23:45:14.352Z,7.58
2023-03-21T23:47:41.122Z,7.52
2023-03-21T23:50:09.734Z,7.46
2023-03-21T23:52:37.459Z,7.43
2023-03-21T23:55:07.937Z,7.40
2023-03-21T23:57:34.789Z,7.38
